createdAt,value
2017-06-17T00:01:39.324Z,6.27
2017-06-17T00:04:11.923Z,6.13
2017-06-17T00:06:44.103Z,4.53
2017-06-17T00:09:17.794Z,7.17
2017-06-17T00:11:50.092Z,9.60
2017-06-17T00:14:22.473Z,9.40
2017-06-17T00:16:55.060Z,8.73
2017-06-17T00:19:27.407Z,8.30
2017-06-17T00:21:59.805Z,5.93
2017-06-17T00:24:32.178Z,7.30
2017-06-17T00:27:04.576Z,7.53
2017-06-17T00:29:36.896Z,11.53
2017-06-17T00:32:09.327Z,7.17
2017-06-17T00:34:41.776Z,7.57
2017-06-17T00:37:14.163Z,13.40
2017-06-17T00:39:46.435Z,11.27
2017-06-17T00:42:19.050Z,11.97
2017-06-17T00:44:51.440Z,7.20
2017-06-17T00:47:23.856Z,5.17
2017-06-17T00:49:56.143Z,9.87
2017-06-17T00:52:28.552Z,10.30
2017-06-17T00:55:00.956Z,6.77
2017-06-17T00:57:33.372Z,6.90
2017-06-17T01:00:05.811Z,13.13
2017-06-17T01:02:40.148Z,10.67
2017-06-17T01:05:12.519Z,6.30
2017-06-17T01:07:44.904Z,7.07
2017-06-17T01:10:17.076Z,9.43
2017-06-17T01:12:51.510Z,7.43
2017-06-17T01:15:24.088Z,6.43
2017-06-17T01:17:56.471Z,8.43
2017-06-17T01:20:28.767Z,7.00
2017-06-17T01:23:01.128Z,9.13
2017-06-17T01:25:33.520Z,11.60
2017-06-17T01:28:06.075Z,10.30
2017-06-17T01:30:38.444Z,6.60
2017-06-17T01:33:10.878Z,9.10
2017-06-17T01:35:43.196Z,8.00
2017-06-17T01:38:15.568Z,10.90
2017-06-17T01:40:47.855Z,10.20
2017-06-17T01:43:20.256Z,7.53
2017-06-17T01:45:53.099Z,6.20
2017-06-17T01:48:25.207Z,10.60
2017-06-17T01:50:57.476Z,12.13
2017-06-17T01:53:30.019Z,7.03
2017-06-17T01:56:02.057Z,8.57
2017-06-17T01:58:34.300Z,7.63
2017-06-17T02:01:06.635Z,5.10
2017-06-17T02:03:39.148Z,10.03
2017-06-17T02:06:11.491Z,4.67
2017-06-17T02:08:43.839Z,6.43
2017-06-17T02:11:16.348Z,8.20
2017-06-17T02:13:48.728Z,13.07
2017-06-17T02:16:21.060Z,9.97
2017-06-17T02:18:53.692Z,8.63
2017-06-17T02:21:32.139Z,7.50
2017-06-17T02:24:04.582Z,8.23
2017-06-17T02:26:36.839Z,11.53
2017-06-17T02:29:09.294Z,7.40
2017-06-17T02:31:41.660Z,9.30
2017-06-17T02:34:15.887Z,9.53
2017-06-17T02:36:48.455Z,6.00
2017-06-17T02:39:20.938Z,6.10
2017-06-17T02:41:53.355Z,7.50
2017-06-17T02:44:25.740Z,10.27
2017-06-17T02:46:58.031Z,10.57
2017-06-17T02:49:31.764Z,12.07
2017-06-17T02:52:03.863Z,11.00
2017-06-17T02:54:36.611Z,6.57
2017-06-17T02:57:08.812Z,8.93
2017-06-17T02:59:41.247Z,8.90
2017-06-17T03:02:13.648Z,9.90
2017-06-17T03:04:46.158Z,9.73
2017-06-17T03:07:18.561Z,9.50
2017-06-17T03:09:51.028Z,7.27
2017-06-17T03:12:23.468Z,6.60
2017-06-17T03:14:56.043Z,12.23
2017-06-17T03:17:28.298Z,8.60
2017-06-17T03:20:00.728Z,6.53
2017-06-17T03:22:33.147Z,9.13
2017-06-17T03:25:05.995Z,11.73
2017-06-17T03:27:38.006Z,12.00
2017-06-17T03:30:10.439Z,12.53
2017-06-17T03:32:42.844Z,9.43
2017-06-17T03:35:15.264Z,8.63
2017-06-17T03:37:47.698Z,11.47
2017-06-17T03:40:20.201Z,6.77
2017-06-17T03:42:53.431Z,7.67
2017-06-17T03:45:25.923Z,9.03
2017-06-17T03:47:58.335Z,7.77
2017-06-17T03:50:30.636Z,10.20
2017-06-17T03:53:02.992Z,13.93
2017-06-17T03:55:39.605Z,10.20
2017-06-17T03:58:11.847Z,12.53
2017-06-17T04:00:44.338Z,10.20
2017-06-17T04:03:16.667Z,9.50
2017-06-17T04:05:48.979Z,7.47
2017-06-17T04:08:21.688Z,13.50
2017-06-17T04:10:53.884Z,6.73
2017-06-17T04:13:26.355Z,16.10
2017-06-17T04:15:58.730Z,10.40
2017-06-17T04:18:31.028Z,9.50
2017-06-17T04:21:03.611Z,13.33
2017-06-17T04:23:35.936Z,8.47
2017-06-17T04:26:08.375Z,7.77
2017-06-17T04:28:40.864Z,9.53
2017-06-17T04:31:13.177Z,9.97
2017-06-17T04:33:45.559Z,6.13
2017-06-17T04:36:18.011Z,7.47
2017-06-17T04:38:51.329Z,7.57
2017-06-17T04:41:23.811Z,5.87
2017-06-17T04:43:56.142Z,7.57
2017-06-17T04:46:28.495Z,8.70
2017-06-17T04:49:00.727Z,10.50
2017-06-17T04:51:33.192Z,7.80
2017-06-17T04:54:05.523Z,7.00
2017-06-17T04:56:37.952Z,6.03
2017-06-17T04:59:10.543Z,8.20
2017-06-17T05:01:42.708Z,5.13
2017-06-17T05:04:15.335Z,7.10
2017-06-17T05:06:47.456Z,11.43
2017-06-17T05:09:20.080Z,7.97
2017-06-17T05:11:52.127Z,8.67
2017-06-17T05:14:24.547Z,8.87
2017-06-17T05:16:56.862Z,5.60
2017-06-17T05:19:29.191Z,8.10
2017-06-17T05:22:01.662Z,5.53
2017-06-17T05:24:34.091Z,4.83
2017-06-17T05:27:06.507Z,7.60
2017-06-17T05:29:38.846Z,6.20
2017-06-17T05:32:11.254Z,4.63
2017-06-17T05:34:43.667Z,4.50
2017-06-17T05:37:17.080Z,5.83
2017-06-17T05:39:49.495Z,5.40
2017-06-17T05:42:21.932Z,7.57
2017-06-17T05:44:54.380Z,6.00
2017-06-17T05:47:27.009Z,9.10
2017-06-17T05:49:59.184Z,7.70
2017-06-17T05:52:38.727Z,7.20
2017-06-17T05:55:11.098Z,9.00
2017-06-17T05:57:43.523Z,10.90
2017-06-17T06:00:15.947Z,5.57
2017-06-17T06:02:48.373Z,7.67
2017-06-17T06:05:20.747Z,7.10
2017-06-17T06:07:53.117Z,6.77
2017-06-17T06:10:25.597Z,8.43
2017-06-17T06:12:58.024Z,6.93
2017-06-17T06:15:30.411Z,6.80
2017-06-17T06:18:02.708Z,5.60
2017-06-17T06:20:35.019Z,8.83
2017-06-17T06:23:07.451Z,5.53
2017-06-17T06:25:39.832Z,6.00
2017-06-17T06:28:12.212Z,7.20
2017-06-17T06:30:44.667Z,6.03
2017-06-17T06:33:17.057Z,7.73
2017-06-17T06:35:49.316Z,6.70
2017-06-17T06:38:22.471Z,8.03
2017-06-17T06:40:55.071Z,7.30
2017-06-17T06:43:27.445Z,6.23
2017-06-17T06:46:00.103Z,5.10
2017-06-17T06:48:32.227Z,6.47
2017-06-17T06:51:04.621Z,6.00
2017-06-17T06:53:37.239Z,7.17
2017-06-17T06:56:09.660Z,6.40
2017-06-17T06:58:41.987Z,7.37
2017-06-17T07:01:14.367Z,7.23
2017-06-17T07:03:46.635Z,9.20
2017-06-17T07:06:18.979Z,7.93
2017-06-17T07:08:51.467Z,8.20
2017-06-17T07:11:24.247Z,5.03
2017-06-17T07:13:56.327Z,6.60
2017-06-17T07:16:28.912Z,5.73
2017-06-17T07:19:01.352Z,5.97
2017-06-17T07:21:33.664Z,7.00
2017-06-17T07:24:06.010Z,6.43
2017-06-17T07:26:38.452Z,6.23
2017-06-17T07:29:10.888Z,5.47
2017-06-17T07:31:43.627Z,7.93
2017-06-17T07:34:16.023Z,5.13
2017-06-17T07:36:47.979Z,2.93
2017-06-17T07:39:20.668Z,5.60
2017-06-17T07:41:52.748Z,3.93
2017-06-17T07:44:25.132Z,3.17
2017-06-17T07:46:57.499Z,8.87
2017-06-17T07:49:30.840Z,5.43
2017-06-17T07:52:03.164Z,6.70
2017-06-17T07:54:35.558Z,6.87
2017-06-17T07:57:07.978Z,5.53
2017-06-17T07:59:40.496Z,5.87
2017-06-17T08:02:12.943Z,5.13
2017-06-17T08:04:45.463Z,5.63
2017-06-17T08:07:17.853Z,6.77
2017-06-17T08:09:50.293Z,6.37
2017-06-17T08:12:22.718Z,5.03
2017-06-17T08:14:55.264Z,8.43
2017-06-17T08:17:27.630Z,6.20
2017-06-17T08:20:00.020Z,7.43
2017-06-17T08:22:32.456Z,8.87
2017-06-17T08:25:05.631Z,8.87
2017-06-17T08:27:38.200Z,8.50
2017-06-17T08:30:10.628Z,8.27
2017-06-17T08:32:42.966Z,8.83
2017-06-17T08:35:16.395Z,9.93
2017-06-17T08:37:48.988Z,7.50
2017-06-17T08:40:21.269Z,12.40
2017-06-17T08:42:54.166Z,6.00
2017-06-17T08:45:26.192Z,7.57
2017-06-17T08:47:58.355Z,9.00
2017-06-17T08:50:30.781Z,6.63
2017-06-17T08:53:03.088Z,7.97
2017-06-17T08:55:36.504Z,7.47
2017-06-17T08:58:08.959Z,7.40
2017-06-17T09:00:41.544Z,7.87
2017-06-17T09:03:13.891Z,8.87
2017-06-17T09:05:46.283Z,7.23
2017-06-17T09:08:18.651Z,7.33
2017-06-17T09:10:51.099Z,8.80
2017-06-17T09:13:23.707Z,6.77
2017-06-17T09:15:56.511Z,10.67
2017-06-17T09:18:29.088Z,7.97
2017-06-17T09:21:02.839Z,6.90
2017-06-17T09:23:34.839Z,8.20
2017-06-17T09:26:07.231Z,6.87
2017-06-17T09:28:39.643Z,7.63
2017-06-17T09:31:19.172Z,8.90
2017-06-17T09:33:52.566Z,9.30
2017-06-17T09:36:24.882Z,9.00
2017-06-17T09:38:57.583Z,7.00
2017-06-17T09:41:29.664Z,6.70
2017-06-17T09:44:02.125Z,6.50
2017-06-17T09:46:34.584Z,6.97
2017-06-17T09:49:06.956Z,7.07
2017-06-17T09:51:39.230Z,6.53
2017-06-17T09:54:11.844Z,6.53
2017-06-17T09:56:44.031Z,8.60
2017-06-17T09:59:16.520Z,5.87
2017-06-17T10:01:48.850Z,5.77
2017-06-17T10:04:21.376Z,6.30
2017-06-17T10:06:53.716Z,6.60
2017-06-17T10:09:26.111Z,6.90
2017-06-17T10:11:58.712Z,7.20
2017-06-17T10:14:31.035Z,11.27
2017-06-17T10:17:03.415Z,7.10
2017-06-17T10:19:35.815Z,8.90
2017-06-17T10:22:08.291Z,8.70
2017-06-17T10:24:40.687Z,7.73
2017-06-17T10:27:13.164Z,7.80
2017-06-17T10:29:45.612Z,8.40
2017-06-17T10:32:17.959Z,9.63
2017-06-17T10:34:50.372Z,9.30
2017-06-17T10:37:22.788Z,7.50
2017-06-17T10:39:55.287Z,14.77
2017-06-17T10:42:27.639Z,8.20
2017-06-17T10:45:00.054Z,14.47
2017-06-17T10:47:32.403Z,11.20
2017-06-17T10:50:04.811Z,8.90
2017-06-17T10:52:37.104Z,12.57
2017-06-17T10:55:09.526Z,8.57
2017-06-17T10:57:41.931Z,13.30
2017-06-17T11:00:14.331Z,8.37
2017-06-17T11:02:46.648Z,8.60
2017-06-17T11:05:19.020Z,9.67
2017-06-17T11:07:51.428Z,13.27
2017-06-17T11:10:24.168Z,7.57
2017-06-17T11:12:56.360Z,8.03
2017-06-17T11:15:28.846Z,9.93
2017-06-17T11:18:01.304Z,9.07
2017-06-17T11:20:33.782Z,9.37
2017-06-17T11:23:06.324Z,10.23
2017-06-17T11:25:39.441Z,10.87
2017-06-17T11:28:11.975Z,7.73
2017-06-17T11:30:44.347Z,8.80
2017-06-17T11:33:16.757Z,9.80
2017-06-17T11:35:49.255Z,6.67
2017-06-17T11:38:21.622Z,8.90
2017-06-17T11:40:54.108Z,7.37
2017-06-17T11:43:26.471Z,10.23
2017-06-17T11:45:58.911Z,8.00
2017-06-17T11:48:31.543Z,9.97
2017-06-17T11:51:03.898Z,6.67
2017-06-17T11:53:36.192Z,7.77
2017-06-17T11:56:08.667Z,7.87
2017-06-17T11:58:41.027Z,8.17
2017-06-17T12:01:13.548Z,8.37
2017-06-17T12:03:45.763Z,8.20
2017-06-17T12:06:18.057Z,9.77
2017-06-17T12:08:50.491Z,12.07
2017-06-17T12:11:22.984Z,9.97
2017-06-17T12:13:55.443Z,10.83
2017-06-17T12:16:27.953Z,10.37
2017-06-17T12:19:00.376Z,8.93
2017-06-17T12:21:32.887Z,8.70
2017-06-17T12:24:05.919Z,9.27
2017-06-17T12:26:37.727Z,9.60
2017-06-17T12:29:10.031Z,9.40
2017-06-17T12:31:42.796Z,8.57
2017-06-17T12:34:14.901Z,8.17
2017-06-17T12:36:47.243Z,8.77
2017-06-17T12:39:20.540Z,6.63
2017-06-17T12:41:52.992Z,11.37
2017-06-17T12:44:25.276Z,10.47
2017-06-17T12:46:57.635Z,9.40
2017-06-17T12:49:30.395Z,7.87
2017-06-17T12:52:02.679Z,9.23
2017-06-17T12:54:34.654Z,8.27
2017-06-17T12:57:07.020Z,7.97
2017-06-17T12:59:39.415Z,11.93
2017-06-17T13:02:11.670Z,10.00
2017-06-17T13:04:48.243Z,6.73
2017-06-17T13:07:20.516Z,10.83
2017-06-17T13:09:53.272Z,8.10
2017-06-17T13:12:25.385Z,6.87
2017-06-17T13:14:57.742Z,8.77
2017-06-17T13:17:30.137Z,9.17
2017-06-17T13:20:02.425Z,10.17
2017-06-17T13:22:34.687Z,9.87
2017-06-17T13:25:07.101Z,11.30
2017-06-17T13:27:39.691Z,9.43
2017-06-17T13:30:11.854Z,9.63
2017-06-17T13:32:45.449Z,12.43
2017-06-17T13:35:18.116Z,12.33
2017-06-17T13:37:50.375Z,9.93
2017-06-17T13:40:22.755Z,9.37
2017-06-17T13:42:55.038Z,8.83
2017-06-17T13:45:27.416Z,9.30
2017-06-17T13:48:00.027Z,7.23
2017-06-17T13:50:32.326Z,6.30
2017-06-17T13:53:04.808Z,9.07
2017-06-17T13:55:37.147Z,5.93
2017-06-17T13:58:09.719Z,7.53
2017-06-17T14:00:41.892Z,6.13
2017-06-17T14:03:14.284Z,6.17
2017-06-17T14:05:46.649Z,7.10
2017-06-17T14:08:19.047Z,7.13
2017-06-17T14:10:51.108Z,6.30
2017-06-17T14:13:24.203Z,9.03
2017-06-17T14:15:56.852Z,8.57
2017-06-17T14:18:29.208Z,8.47
2017-06-17T14:21:21.488Z,6.43
2017-06-17T14:23:53.388Z,7.77
2017-06-17T14:26:25.620Z,9.07
2017-06-17T14:28:57.900Z,8.33
2017-06-17T14:31:30.280Z,6.67
2017-06-17T14:34:02.577Z,6.30
2017-06-17T14:36:34.942Z,6.53
2017-06-17T14:39:07.323Z,6.27
2017-06-17T14:41:39.562Z,9.60
2017-06-17T14:44:11.892Z,9.97
2017-06-17T14:46:44.283Z,7.10
2017-06-17T14:49:16.701Z,7.93
2017-06-17T14:51:48.880Z,7.20
2017-06-17T14:54:21.299Z,8.90
2017-06-17T14:56:53.783Z,8.10
2017-06-17T14:59:26.182Z,8.53
2017-06-17T15:01:58.525Z,8.63
2017-06-17T15:04:31.104Z,11.00
2017-06-17T15:07:03.279Z,9.40
2017-06-17T15:09:35.624Z,7.90
2017-06-17T15:12:07.948Z,10.47
2017-06-17T15:14:40.503Z,6.87
2017-06-17T15:17:12.607Z,8.67
2017-06-17T15:19:44.975Z,8.93
2017-06-17T15:22:17.176Z,8.37
2017-06-17T15:24:49.399Z,9.77
2017-06-17T15:27:21.628Z,8.60
2017-06-17T15:29:53.935Z,8.20
2017-06-17T15:32:26.300Z,9.60
2017-06-17T15:34:58.669Z,8.13
2017-06-17T15:37:30.925Z,11.10
2017-06-17T15:40:03.202Z,9.43
2017-06-17T15:42:35.478Z,9.83
2017-06-17T15:45:07.803Z,8.97
2017-06-17T15:47:40.233Z,10.03
2017-06-17T15:50:12.652Z,15.43
2017-06-17T15:52:44.919Z,10.17
2017-06-17T15:55:17.262Z,7.93
2017-06-17T15:57:49.738Z,6.70
2017-06-17T16:00:22.024Z,6.83
2017-06-17T16:02:54.356Z,8.17
2017-06-17T16:05:26.690Z,6.20
2017-06-17T16:07:59.072Z,6.00
2017-06-17T16:10:31.520Z,6.73
2017-06-17T16:13:03.888Z,5.97
2017-06-17T16:15:36.348Z,6.00
2017-06-17T16:18:08.560Z,6.17
2017-06-17T16:20:40.744Z,8.57
2017-06-17T16:23:12.965Z,5.90
2017-06-17T16:25:45.452Z,6.80
2017-06-17T16:28:17.423Z,6.50
2017-06-17T16:30:49.761Z,6.77
2017-06-17T16:33:22.100Z,7.53
2017-06-17T16:35:54.421Z,6.70
2017-06-17T16:38:26.783Z,6.33
2017-06-17T16:41:00.292Z,6.77
2017-06-17T16:43:32.665Z,10.80
2017-06-17T16:46:05.649Z,6.30
2017-06-17T16:48:38.396Z,6.53
2017-06-17T16:51:10.755Z,6.57
2017-06-17T16:53:43.161Z,6.63
2017-06-17T16:56:15.515Z,7.13
2017-06-17T16:58:47.740Z,6.00
2017-06-17T17:01:20.134Z,9.10
2017-06-17T17:03:52.491Z,7.47
2017-06-17T17:06:24.864Z,8.10
2017-06-17T17:08:57.325Z,6.83
2017-06-17T17:11:29.719Z,9.77
2017-06-17T17:14:01.938Z,9.03
2017-06-17T17:16:34.240Z,8.30
2017-06-17T17:19:06.709Z,7.83
2017-06-17T17:21:39.075Z,7.73
2017-06-17T17:24:11.328Z,7.50
2017-06-17T17:26:43.743Z,6.90
2017-06-17T17:29:15.887Z,7.40
2017-06-17T17:31:48.284Z,7.87
2017-06-17T17:34:20.554Z,9.40
2017-06-17T17:36:52.837Z,8.10
2017-06-17T17:39:25.092Z,7.40
2017-06-17T17:41:57.387Z,8.20
2017-06-17T17:44:29.603Z,7.03
2017-06-17T17:47:02.980Z,6.83
2017-06-17T17:49:35.344Z,7.27
2017-06-17T17:52:07.708Z,6.63
2017-06-17T17:54:40.761Z,7.67
2017-06-17T17:57:13.307Z,8.23
2017-06-17T17:59:45.679Z,7.80
2017-06-17T18:02:17.978Z,7.07
2017-06-17T18:04:50.211Z,7.17
2017-06-17T18:07:23.467Z,7.20
2017-06-17T18:09:55.800Z,7.87
2017-06-17T18:12:28.135Z,7.20
2017-06-17T18:15:00.512Z,8.10
2017-06-17T18:17:32.866Z,7.47
2017-06-17T18:20:05.163Z,6.63
2017-06-17T18:22:37.404Z,8.53
2017-06-17T18:25:09.804Z,7.63
2017-06-17T18:27:42.125Z,7.93
2017-06-17T18:30:14.371Z,7.83
2017-06-17T18:32:46.877Z,11.83
2017-06-17T18:35:19.263Z,9.83
2017-06-17T18:37:51.604Z,13.20
2017-06-17T18:40:23.905Z,8.23
2017-06-17T18:42:56.191Z,7.37
2017-06-17T18:45:28.604Z,7.90
2017-06-17T18:48:00.912Z,8.50
2017-06-17T18:50:33.255Z,7.40
2017-06-17T18:53:05.554Z,7.80
2017-06-17T18:55:38.776Z,8.20
2017-06-17T18:58:11.276Z,8.73
2017-06-17T19:00:43.444Z,8.90
2017-06-17T19:03:15.840Z,7.87
2017-06-17T19:05:48.032Z,7.70
2017-06-17T19:08:20.475Z,7.87
2017-06-17T19:10:52.743Z,8.33
2017-06-17T19:13:25.147Z,8.37
2017-06-17T19:15:57.507Z,10.00
2017-06-17T19:18:29.984Z,8.17
2017-06-17T19:21:02.263Z,8.30
2017-06-17T19:23:34.633Z,8.27
2017-06-17T19:26:07.104Z,8.83
2017-06-17T19:28:39.492Z,12.20
2017-06-17T19:31:11.847Z,8.07
2017-06-17T19:33:44.332Z,8.30
2017-06-17T19:36:16.684Z,7.30
2017-06-17T19:38:49.184Z,7.73
2017-06-17T19:41:21.657Z,8.70
2017-06-17T19:43:54.967Z,8.03
2017-06-17T19:46:27.290Z,11.10
2017-06-17T19:48:59.820Z,8.20
2017-06-17T19:51:32.208Z,9.87
2017-06-17T19:54:05.552Z,8.70
2017-06-17T19:56:37.946Z,8.30
2017-06-17T19:59:10.400Z,9.57
2017-06-17T20:01:42.688Z,9.90
2017-06-17T20:04:15.345Z,11.00
2017-06-17T20:06:47.515Z,10.93
2017-06-17T20:09:19.855Z,11.00
2017-06-17T20:11:52.176Z,11.10
2017-06-17T20:14:24.600Z,10.97
2017-06-17T20:16:56.928Z,11.10
2017-06-17T20:19:30.311Z,11.40
2017-06-17T20:22:17.708Z,10.40
2017-06-17T20:24:50.559Z,11.27
2017-06-17T20:27:23.324Z,13.07
2017-06-17T20:29:56.656Z,12.87
2017-06-17T20:32:29.275Z,14.23
2017-06-17T20:35:01.813Z,13.17
2017-06-17T20:37:34.269Z,13.20
2017-06-17T20:40:06.752Z,12.27
2017-06-17T20:42:39.099Z,11.90
2017-06-17T20:45:11.529Z,11.30
2017-06-17T20:47:43.975Z,12.23
2017-06-17T20:50:16.263Z,13.03
2017-06-17T20:52:48.575Z,12.13
2017-06-17T20:55:21.244Z,11.77
2017-06-17T20:57:53.249Z,12.30
2017-06-17T21:00:25.631Z,11.93
2017-06-17T21:02:58.044Z,13.00
2017-06-17T21:05:30.487Z,12.67
2017-06-17T21:08:02.827Z,13.27
2017-06-17T21:10:35.817Z,13.10
2017-06-17T21:13:07.815Z,13.73
2017-06-17T21:15:40.359Z,13.00
2017-06-17T21:18:12.504Z,13.20
2017-06-17T21:20:44.775Z,12.43
2017-06-17T21:23:17.275Z,13.10
2017-06-17T21:25:49.743Z,12.67
2017-06-17T21:28:22.031Z,12.17
2017-06-17T21:30:54.630Z,14.60
2017-06-17T21:33:26.896Z,14.33
2017-06-17T21:35:59.192Z,13.07
2017-06-17T21:38:31.475Z,13.50
2017-06-17T21:41:03.707Z,12.60
2017-06-17T21:43:36.236Z,13.43
2017-06-17T21:46:08.451Z,13.73
2017-06-17T21:48:41.087Z,12.43
2017-06-17T21:51:13.552Z,12.90
2017-06-17T21:53:45.666Z,13.60
2017-06-17T21:56:18.140Z,13.43
2017-06-17T21:58:50.479Z,12.20
2017-06-17T22:01:23.751Z,12.27
2017-06-17T22:03:56.144Z,12.93
2017-06-17T22:06:28.568Z,12.63
2017-06-17T22:09:01.195Z,13.33
2017-06-17T22:11:34.320Z,15.40
2017-06-17T22:14:06.799Z,11.47
2017-06-17T22:16:39.188Z,14.33
2017-06-17T22:19:11.544Z,11.70
2017-06-17T22:21:43.898Z,11.60
2017-06-17T22:24:16.332Z,12.60
2017-06-17T22:26:48.780Z,12.40
2017-06-17T22:29:21.135Z,11.70
2017-06-17T22:31:53.535Z,10.63
2017-06-17T22:34:26.002Z,12.47
2017-06-17T22:36:58.447Z,12.87
2017-06-17T22:39:30.901Z,12.10
2017-06-17T22:42:03.388Z,12.30
2017-06-17T22:44:35.724Z,12.80
2017-06-17T22:47:08.052Z,15.07
2017-06-17T22:49:40.335Z,12.10
2017-06-17T22:52:12.752Z,13.60
2017-06-17T22:54:45.088Z,11.60
2017-06-17T22:57:17.546Z,12.63
2017-06-17T22:59:50.000Z,14.40
2017-06-17T23:02:22.508Z,12.07
2017-06-17T23:04:55.621Z,14.53
2017-06-17T23:07:28.123Z,14.70
2017-06-17T23:10:00.460Z,13.00
2017-06-17T23:12:32.927Z,13.73
2017-06-17T23:15:05.431Z,16.90
2017-06-17T23:17:37.824Z,13.17
2017-06-17T23:20:10.200Z,13.00
2017-06-17T23:22:42.611Z,13.30
2017-06-17T23:25:14.998Z,15.73
2017-06-17T23:27:48.735Z,13.37
2017-06-17T23:30:20.762Z,14.67
2017-06-17T23:32:53.144Z,14.70
2017-06-17T23:35:25.649Z,13.87
2017-06-17T23:37:57.886Z,14.30
2017-06-17T23:40:30.432Z,14.80
2017-06-17T23:43:02.649Z,12.93
2017-06-17T23:45:35.004Z,15.10
2017-06-17T23:48:07.887Z,13.20
2017-06-17T23:50:39.744Z,15.37
2017-06-17T23:53:12.211Z,16.97
2017-06-17T23:55:44.622Z,14.47
2017-06-17T23:58:17.083Z,14.33
